createdAt,value
2023-02-03T00:00:40.109Z,38.25
2023-02-03T00:03:07.860Z,38.97
2023-02-03T00:05:35.594Z,37.75
2023-02-03T00:08:04.051Z,39.67
2023-02-03T00:10:30.464Z,40.10
2023-02-03T00:12:57.752Z,39.40
2023-02-03T00:15:24.306Z,38.97
2023-02-03T00:17:50.806Z,40.88
2023-02-03T00:20:17.352Z,41.03
2023-02-03T00:22:43.803Z,39.33
2023-02-03T00:25:10.465Z,40.60
2023-02-03T00:27:37.480Z,39.20
2023-02-03T00:30:04.573Z,40.78
2023-02-03T00:32:31.384Z,39.55
2023-02-03T00:34:57.919Z,39.13
2023-02-03T00:37:24.389Z,38.08
2023-02-03T00:39:50.788Z,40.10
2023-02-03T00:42:17.216Z,39.30
2023-02-03T00:44:43.618Z,40.28
2023-02-03T00:47:10.028Z,39.47
2023-02-03T00:49:36.634Z,41.13
2023-02-03T00:52:03.109Z,39.05
2023-02-03T00:54:29.510Z,39.92
2023-02-03T00:56:56.419Z,39.53
2023-02-03T00:59:22.845Z,41.47
2023-02-03T01:01:51.000Z,38.85
2023-02-03T01:04:17.492Z,40.00
2023-02-03T01:06:43.876Z,40.40
2023-02-03T01:09:10.430Z,40.85
2023-02-03T01:11:36.946Z,42.00
2023-02-03T01:14:03.640Z,41.25
2023-02-03T01:16:31.366Z,40.45
2023-02-03T01:18:57.870Z,40.25
2023-02-03T01:21:26.289Z,38.55
2023-02-03T01:23:53.848Z,40.28
2023-02-03T01:26:22.227Z,38.83
2023-02-03T01:28:59.051Z,39.25
2023-02-03T01:31:31.837Z,39.80
2023-02-03T01:33:58.739Z,38.80
2023-02-03T01:36:27.025Z,38.50
2023-02-03T01:38:54.170Z,37.75
2023-02-03T01:41:29.343Z,37.95
2023-02-03T01:43:58.068Z,38.92
2023-02-03T01:46:44.611Z,37.42
2023-02-03T01:49:18.481Z,37.05
2023-02-03T01:51:46.855Z,37.03
2023-02-03T01:54:18.863Z,37.33
2023-02-03T01:56:48.708Z,36.78
2023-02-03T01:59:19.702Z,36.28
2023-02-03T02:01:46.781Z,36.67
2023-02-03T02:04:14.748Z,35.92
2023-02-03T02:06:41.170Z,35.80
2023-02-03T02:09:08.399Z,35.25
2023-02-03T02:11:34.847Z,34.97
2023-02-03T02:14:02.971Z,35.40
2023-02-03T02:16:42.538Z,35.28
2023-02-03T02:19:28.077Z,35.55
2023-02-03T02:22:20.677Z,36.20
2023-02-03T02:25:11.291Z,34.78
2023-02-03T02:28:05.732Z,35.55
2023-02-03T02:30:53.059Z,34.63
2023-02-03T02:33:44.106Z,34.70
2023-02-03T02:36:56.799Z,35.65
2023-02-03T02:39:27.708Z,35.03
2023-02-03T02:42:06.324Z,35.22
2023-02-03T02:44:39.070Z,35.47
2023-02-03T02:47:16.233Z,35.28
2023-02-03T02:50:03.260Z,34.83
2023-02-03T02:52:34.403Z,35.17
2023-02-03T02:55:24.572Z,34.55
2023-02-03T02:57:55.448Z,33.97
2023-02-03T03:00:23.126Z,34.13
2023-02-03T03:02:50.004Z,33.78
2023-02-03T03:05:17.954Z,33.85
2023-02-03T03:08:04.205Z,33.65
2023-02-03T03:10:32.795Z,32.65
2023-02-03T03:13:04.388Z,31.60
2023-02-03T03:15:33.906Z,31.98
2023-02-03T03:18:03.740Z,31.60
2023-02-03T03:20:32.860Z,31.80
2023-02-03T03:23:10.526Z,31.30
2023-02-03T03:25:43.414Z,31.02
2023-02-03T03:28:40.856Z,30.17
2023-02-03T03:31:07.838Z,30.80
2023-02-03T03:33:34.424Z,31.25
2023-02-03T03:36:42.949Z,30.10
2023-02-03T03:39:20.751Z,30.30
2023-02-03T03:42:00.702Z,30.35
2023-02-03T03:44:34.023Z,30.42
2023-02-03T03:47:14.876Z,30.48
2023-02-03T03:49:45.103Z,31.25
2023-02-03T03:52:18.656Z,31.70
2023-02-03T03:54:47.698Z,32.35
2023-02-03T03:57:24.040Z,32.08
2023-02-03T03:59:51.196Z,31.98
2023-02-03T04:02:21.082Z,31.65
2023-02-03T04:04:48.576Z,32.15
2023-02-03T04:07:15.460Z,32.75
2023-02-03T04:09:42.913Z,32.15
2023-02-03T04:12:19.867Z,31.58
2023-02-03T04:14:46.248Z,33.47
2023-02-03T04:17:12.668Z,32.03
2023-02-03T04:19:39.360Z,32.75
2023-02-03T04:22:05.915Z,32.53
2023-02-03T04:24:32.341Z,33.30
2023-02-03T04:26:58.749Z,32.10
2023-02-03T04:29:25.140Z,32.60
2023-02-03T04:31:51.647Z,32.42
2023-02-03T04:34:18.096Z,31.45
2023-02-03T04:36:44.481Z,33.28
2023-02-03T04:39:10.937Z,32.03
2023-02-03T04:41:37.747Z,32.97
2023-02-03T04:44:04.285Z,33.15
2023-02-03T04:46:30.726Z,32.75
2023-02-03T04:48:57.490Z,32.40
2023-02-03T04:51:23.980Z,33.90
2023-02-03T04:53:50.450Z,32.80
2023-02-03T04:56:16.820Z,33.20
2023-02-03T04:58:43.307Z,32.45
2023-02-03T05:01:10.127Z,32.42
2023-02-03T05:03:36.678Z,32.92
2023-02-03T05:06:03.497Z,33.72
2023-02-03T05:08:30.877Z,35.08
2023-02-03T05:10:57.552Z,34.90
2023-02-03T05:13:24.101Z,33.85
2023-02-03T05:15:50.595Z,35.42
2023-02-03T05:18:17.235Z,35.42
2023-02-03T05:20:43.636Z,33.67
2023-02-03T05:23:10.332Z,34.67
2023-02-03T05:25:36.804Z,34.65
2023-02-03T05:28:03.433Z,33.58
2023-02-03T05:30:30.111Z,33.83
2023-02-03T05:32:56.756Z,32.30
2023-02-03T05:35:23.163Z,33.28
2023-02-03T05:37:49.628Z,32.42
2023-02-03T05:40:34.508Z,32.65
2023-02-03T05:43:00.958Z,31.65
2023-02-03T05:45:27.409Z,32.60
2023-02-03T05:47:53.867Z,32.08
2023-02-03T05:50:20.278Z,31.60
2023-02-03T05:52:46.703Z,31.38
2023-02-03T05:55:13.098Z,29.98
2023-02-03T05:57:39.515Z,29.75
2023-02-03T06:00:07.454Z,29.25
2023-02-03T06:02:34.111Z,31.05
2023-02-03T06:05:00.497Z,28.85
2023-02-03T06:07:26.963Z,29.70
2023-02-03T06:09:53.532Z,28.80
2023-02-03T06:12:19.950Z,29.42
2023-02-03T06:14:46.494Z,30.42
2023-02-03T06:17:12.870Z,27.75
2023-02-03T06:19:39.320Z,29.65
2023-02-03T06:22:05.795Z,30.30
2023-02-03T06:24:32.308Z,28.63
2023-02-03T06:26:58.678Z,29.48
2023-02-03T06:29:25.180Z,30.33
2023-02-03T06:31:51.730Z,29.30
2023-02-03T06:34:18.184Z,30.35
2023-02-03T06:36:44.614Z,29.38
2023-02-03T06:39:10.987Z,30.02
2023-02-03T06:41:37.679Z,31.05
2023-02-03T06:44:04.098Z,30.67
2023-02-03T06:46:30.935Z,31.98
2023-02-03T06:48:57.435Z,33.22
2023-02-03T06:51:24.824Z,32.90
2023-02-03T06:53:51.459Z,31.52
2023-02-03T06:56:17.888Z,31.73
2023-02-03T06:58:44.638Z,32.15
2023-02-03T07:01:11.157Z,29.75
2023-02-03T07:03:37.751Z,32.40
2023-02-03T07:06:04.353Z,32.08
2023-02-03T07:08:30.814Z,31.73
2023-02-03T07:10:57.272Z,30.60
2023-02-03T07:13:23.787Z,31.55
2023-02-03T07:15:50.729Z,30.13
2023-02-03T07:18:36.040Z,31.20
2023-02-03T07:21:07.006Z,30.77
2023-02-03T07:23:33.604Z,29.10
2023-02-03T07:26:01.420Z,30.08
2023-02-03T07:28:27.825Z,28.08
2023-02-03T07:30:54.382Z,28.40
2023-02-03T07:33:20.949Z,28.60
2023-02-03T07:35:58.704Z,28.95
2023-02-03T07:38:27.420Z,29.70
2023-02-03T07:40:54.199Z,28.95
2023-02-03T07:43:20.687Z,29.85
2023-02-03T07:45:47.188Z,28.38
2023-02-03T07:48:13.852Z,28.27
2023-02-03T07:50:40.533Z,29.45
2023-02-03T07:53:09.303Z,29.17
2023-02-03T07:55:38.086Z,30.67
2023-02-03T07:58:04.698Z,31.25
2023-02-03T08:00:31.291Z,30.77
2023-02-03T08:02:57.763Z,32.78
2023-02-03T08:05:24.331Z,31.38
2023-02-03T08:07:50.770Z,33.25
2023-02-03T08:10:17.931Z,32.35
2023-02-03T08:12:45.476Z,31.77
2023-02-03T08:15:13.133Z,33.00
2023-02-03T08:17:41.271Z,31.75
2023-02-03T08:20:11.365Z,30.77
2023-02-03T08:22:37.889Z,28.35
2023-02-03T08:25:04.742Z,28.33
2023-02-03T08:27:32.709Z,29.58
2023-02-03T08:29:59.748Z,29.67
2023-02-03T08:32:26.533Z,30.98
2023-02-03T08:34:53.580Z,31.67
2023-02-03T08:37:24.570Z,32.40
2023-02-03T08:39:51.723Z,31.73
2023-02-03T08:42:18.474Z,31.58
2023-02-03T08:44:44.912Z,29.02
2023-02-03T08:47:12.146Z,26.17
2023-02-03T08:49:41.689Z,25.00
2023-02-03T08:52:11.692Z,22.83
2023-02-03T08:54:39.019Z,22.98
2023-02-03T08:57:06.157Z,20.90
2023-02-03T08:59:36.041Z,19.27
2023-02-03T09:02:07.021Z,19.13
2023-02-03T09:04:34.099Z,19.33
2023-02-03T09:07:02.509Z,18.15
2023-02-03T09:09:29.107Z,18.48
2023-02-03T09:12:00.648Z,19.60
2023-02-03T09:14:27.154Z,20.17
2023-02-03T09:16:53.681Z,18.40
2023-02-03T09:19:20.271Z,20.35
2023-02-03T09:21:48.997Z,19.02
2023-02-03T09:24:16.467Z,20.92
2023-02-03T09:26:42.876Z,19.27
2023-02-03T09:29:09.387Z,20.33
2023-02-03T09:31:36.449Z,19.58
2023-02-03T09:34:02.963Z,18.20
2023-02-03T09:36:29.497Z,20.00
2023-02-03T09:38:57.823Z,18.35
2023-02-03T09:42:09.492Z,18.50
2023-02-03T09:44:47.839Z,18.45
2023-02-03T09:47:22.935Z,17.90
2023-02-03T09:50:16.339Z,19.83
2023-02-03T09:52:44.279Z,18.85
2023-02-03T09:55:35.769Z,18.70
2023-02-03T09:58:14.398Z,19.38
2023-02-03T10:00:51.495Z,21.02
2023-02-03T10:03:39.507Z,18.08
2023-02-03T10:06:24.750Z,19.48
2023-02-03T10:09:24.460Z,19.30
2023-02-03T10:12:06.332Z,18.85
2023-02-03T10:14:35.556Z,18.65
2023-02-03T10:17:30.702Z,19.45
2023-02-03T10:20:04.022Z,20.38
2023-02-03T10:22:34.366Z,20.05
2023-02-03T10:25:07.793Z,18.15
2023-02-03T10:27:37.485Z,21.33
2023-02-03T10:30:16.854Z,17.88
2023-02-03T10:32:43.483Z,20.23
2023-02-03T10:35:14.111Z,19.60
2023-02-03T10:37:51.125Z,21.27
2023-02-03T10:40:19.965Z,20.63
2023-02-03T10:43:08.020Z,18.88
2023-02-03T10:45:38.390Z,19.13
2023-02-03T10:48:09.962Z,18.00
2023-02-03T10:50:38.526Z,18.98
2023-02-03T10:53:31.928Z,18.90
2023-02-03T10:56:04.250Z,19.30
2023-02-03T10:58:33.341Z,18.48
2023-02-03T11:01:06.209Z,17.20
2023-02-03T11:03:33.899Z,18.73
2023-02-03T11:08:38.445Z,19.83
2023-02-03T11:11:21.658Z,20.63
2023-02-03T11:14:10.184Z,19.77
2023-02-03T11:16:39.508Z,18.20
2023-02-03T11:19:20.784Z,18.75
2023-02-03T11:21:52.999Z,19.42
2023-02-03T11:24:29.277Z,17.15
2023-02-03T11:27:16.533Z,19.20
2023-02-03T11:29:49.160Z,17.60
2023-02-03T11:32:36.537Z,16.45
2023-02-03T11:35:24.049Z,15.85
2023-02-03T11:37:55.988Z,18.55
2023-02-03T11:40:29.076Z,17.13
2023-02-03T11:42:55.970Z,17.38
2023-02-03T11:45:45.072Z,18.02
2023-02-03T11:48:24.471Z,17.83
2023-02-03T11:51:12.787Z,17.27
2023-02-03T11:54:05.738Z,17.50
2023-02-03T11:56:57.867Z,18.45
2023-02-03T11:59:37.300Z,16.92
2023-02-03T12:02:18.923Z,18.15
2023-02-03T12:05:04.591Z,17.15
2023-02-03T12:07:57.140Z,17.50
2023-02-03T12:11:05.173Z,14.63
2023-02-03T12:13:47.051Z,15.98
2023-02-03T12:16:19.527Z,15.95
2023-02-03T12:19:13.976Z,17.23
2023-02-03T12:21:40.617Z,16.38
2023-02-03T12:24:19.301Z,17.63
2023-02-03T12:27:22.302Z,18.52
2023-02-03T12:30:12.275Z,16.50
2023-02-03T12:32:48.905Z,15.73
2023-02-03T12:35:41.488Z,16.10
2023-02-03T12:38:07.868Z,17.35
2023-02-03T12:40:42.557Z,19.90
2023-02-03T12:43:50.685Z,16.77
2023-02-03T12:46:26.255Z,18.35
2023-02-03T12:48:55.761Z,20.80
2023-02-03T12:51:35.177Z,18.75
2023-02-03T12:54:10.591Z,15.87
2023-02-03T12:56:41.917Z,19.70
2023-02-03T12:59:25.783Z,18.00
2023-02-03T13:02:01.487Z,18.17
2023-02-03T13:04:36.853Z,17.63
2023-02-03T13:07:25.893Z,16.58
2023-02-03T13:10:03.658Z,17.45
2023-02-03T13:12:41.853Z,16.35
2023-02-03T13:15:39.733Z,15.40
2023-02-03T13:18:29.729Z,15.95
2023-02-03T13:20:56.575Z,16.90
2023-02-03T13:23:24.820Z,14.68
2023-02-03T13:26:15.845Z,16.60
2023-02-03T13:28:48.297Z,16.40
2023-02-03T13:31:33.553Z,16.10
2023-02-03T13:34:11.042Z,16.50
2023-02-03T13:37:06.864Z,16.00
2023-02-03T13:39:53.198Z,15.15
2023-02-03T13:42:30.796Z,17.60
2023-02-03T13:45:05.456Z,15.98
2023-02-03T13:47:32.993Z,14.90
2023-02-03T13:50:03.419Z,15.32
2023-02-03T13:52:45.711Z,17.27
2023-02-03T13:55:28.200Z,17.30
2023-02-03T13:57:55.111Z,16.35
2023-02-03T14:00:43.140Z,15.40
2023-02-03T14:03:24.732Z,16.10
2023-02-03T14:05:54.714Z,16.52
2023-02-03T14:08:30.023Z,14.90
2023-02-03T14:11:33.725Z,15.95
2023-02-03T14:14:12.153Z,15.60
2023-02-03T14:16:52.051Z,15.95
2023-02-03T14:19:29.790Z,14.93
2023-02-03T14:21:59.278Z,17.27
2023-02-03T14:24:45.498Z,17.67
2023-02-03T14:27:23.586Z,16.05
2023-02-03T14:30:13.264Z,19.60
2023-02-03T14:33:01.002Z,17.65
2023-02-03T14:35:33.233Z,18.05
2023-02-03T14:38:06.972Z,18.80
2023-02-03T14:40:59.885Z,17.17
2023-02-03T14:43:58.443Z,18.33
2023-02-03T14:46:53.903Z,19.50
2023-02-03T14:49:39.144Z,21.95
2023-02-03T14:52:17.417Z,22.02
2023-02-03T14:55:10.779Z,21.95
2023-02-03T14:57:37.130Z,17.10
2023-02-03T15:00:07.252Z,17.50
2023-02-03T15:02:35.141Z,18.63
2023-02-03T15:05:14.167Z,18.35
2023-02-03T15:07:45.738Z,17.33
2023-02-03T15:10:18.791Z,18.60
2023-02-03T15:12:53.845Z,16.20
2023-02-03T15:15:23.843Z,17.27
2023-02-03T15:17:52.603Z,17.15
2023-02-03T15:20:41.396Z,17.10
2023-02-03T15:23:19.745Z,17.42
2023-02-03T15:25:46.492Z,15.73
2023-02-03T15:28:19.379Z,20.02
2023-02-03T15:30:47.340Z,16.75
2023-02-03T15:33:21.790Z,27.35
2023-02-03T15:35:52.977Z,21.27
2023-02-03T15:38:26.061Z,21.33
2023-02-03T15:40:58.880Z,20.27
2023-02-03T15:43:50.763Z,23.92
2023-02-03T15:46:24.208Z,20.52
2023-02-03T15:48:54.895Z,18.67
2023-02-03T15:51:37.514Z,20.95
2023-02-03T15:54:12.463Z,17.27
2023-02-03T15:56:45.694Z,17.77
2023-02-03T15:59:26.765Z,17.27
2023-02-03T16:01:54.063Z,18.45
2023-02-03T16:04:22.239Z,17.80
2023-02-03T16:06:51.245Z,16.85
2023-02-03T16:09:44.130Z,16.92
2023-02-03T16:12:18.756Z,17.48
2023-02-03T16:14:46.790Z,16.30
2023-02-03T16:17:28.789Z,18.30
2023-02-03T16:20:10.705Z,19.00
2023-02-03T16:22:43.456Z,21.55
2023-02-03T16:25:23.489Z,22.05
2023-02-03T16:28:35.494Z,22.65
2023-02-03T16:31:29.395Z,23.15
2023-02-03T16:34:14.716Z,24.08
2023-02-03T16:37:02.290Z,23.48
2023-02-03T16:39:47.477Z,24.75
2023-02-03T16:42:36.298Z,22.90
2023-02-03T16:45:24.232Z,25.38
2023-02-03T16:48:09.334Z,29.45
2023-02-03T16:50:53.691Z,29.30
2023-02-03T16:53:30.495Z,30.30
2023-02-03T16:56:02.270Z,32.75
2023-02-03T16:58:28.781Z,36.67
2023-02-03T17:01:03.258Z,36.28
2023-02-03T17:03:32.761Z,37.63
2023-02-03T17:06:04.491Z,36.67
2023-02-03T17:08:31.249Z,36.85
2023-02-03T17:11:06.675Z,35.70
2023-02-03T17:13:33.768Z,33.40
2023-02-03T17:16:00.609Z,35.45
2023-02-03T17:18:27.186Z,35.25
2023-02-03T17:20:55.715Z,35.22
2023-02-03T17:23:23.485Z,36.37
2023-02-03T17:25:50.366Z,35.63
2023-02-03T17:28:17.631Z,35.50
2023-02-03T17:30:44.282Z,34.97
2023-02-03T17:33:14.265Z,36.72
2023-02-03T17:35:45.498Z,35.95
2023-02-03T17:38:13.362Z,36.90
2023-02-03T17:54:35.214Z,38.03
2023-02-03T17:57:02.247Z,38.13
2023-02-03T17:59:28.812Z,40.45
2023-02-03T18:01:55.239Z,38.63
2023-02-03T18:04:21.659Z,38.85
2023-02-03T18:06:48.176Z,37.92
2023-02-03T18:09:16.508Z,38.45
2023-02-03T18:11:43.574Z,42.40
2023-02-03T18:14:11.234Z,38.20
2023-02-03T18:16:37.996Z,39.20
2023-02-03T18:19:07.760Z,39.15
2023-02-03T18:21:37.736Z,37.70
2023-02-03T18:24:05.831Z,37.40
2023-02-03T18:26:36.802Z,34.40
2023-02-03T18:29:05.687Z,37.47
2023-02-03T18:31:32.783Z,32.30
2023-02-03T18:34:03.712Z,31.42
2023-02-03T18:36:30.193Z,31.02
2023-02-03T18:38:56.660Z,29.67
2023-02-03T18:41:25.023Z,30.30
2023-02-03T18:43:51.562Z,30.25
2023-02-03T18:46:24.820Z,30.75
2023-02-03T18:48:51.483Z,30.15
2023-02-03T18:51:19.849Z,32.70
2023-02-03T18:53:49.025Z,32.70
2023-02-03T18:56:18.118Z,39.58
2023-02-03T18:58:44.750Z,37.28
2023-02-03T19:01:24.408Z,39.55
2023-02-03T19:03:51.216Z,38.25
2023-02-03T19:06:18.565Z,37.97
2023-02-03T19:08:45.602Z,35.35
2023-02-03T19:11:13.571Z,36.85
2023-02-03T19:13:41.216Z,36.50
2023-02-03T19:16:08.540Z,37.63
2023-02-03T19:18:36.189Z,37.33
2023-02-03T19:21:02.661Z,37.38
2023-02-03T19:23:29.373Z,34.90
2023-02-03T19:25:56.257Z,35.33
2023-02-03T19:28:30.462Z,36.05
2023-02-03T19:31:08.377Z,35.15
2023-02-03T19:33:35.735Z,34.47
2023-02-03T19:36:02.722Z,33.60
2023-02-03T19:38:29.409Z,31.77
2023-02-03T19:40:56.006Z,31.27
2023-02-03T19:43:25.173Z,31.52
2023-02-03T19:45:51.905Z,32.05
2023-02-03T19:48:18.739Z,32.47
2023-02-03T19:50:47.882Z,32.25
2023-02-03T19:53:16.202Z,30.85
2023-02-03T19:55:43.668Z,31.85
2023-02-03T19:58:11.554Z,31.67
2023-02-03T20:00:38.289Z,30.08
2023-02-03T20:03:05.584Z,29.88
2023-02-03T20:05:32.237Z,28.33
2023-02-03T20:07:58.756Z,31.88
2023-02-03T20:10:28.293Z,29.88
2023-02-03T20:12:55.353Z,30.23
2023-02-03T20:15:22.105Z,30.90
2023-02-03T20:17:49.116Z,29.40
2023-02-03T20:20:18.593Z,31.13
2023-02-03T20:22:46.276Z,30.02
2023-02-03T20:25:12.997Z,29.35
2023-02-03T20:27:39.894Z,29.50
2023-02-03T20:30:07.082Z,28.83
2023-02-03T20:32:34.308Z,29.48
2023-02-03T20:35:01.062Z,28.83
2023-02-03T20:37:27.686Z,29.48
2023-02-03T20:39:54.223Z,28.50
2023-02-03T20:42:20.652Z,28.70
2023-02-03T20:44:47.192Z,28.60
2023-02-03T20:47:17.767Z,29.13
2023-02-03T20:49:44.633Z,28.55
2023-02-03T20:52:16.973Z,29.17
2023-02-03T20:54:44.240Z,29.55
2023-02-03T20:57:19.009Z,29.50
2023-02-03T20:59:46.558Z,29.75
2023-02-03T21:02:32.998Z,29.88
2023-02-03T21:05:02.225Z,29.33
2023-02-03T21:07:30.714Z,28.13
2023-02-03T21:09:59.840Z,29.00
2023-02-03T21:12:36.021Z,28.92
2023-02-03T21:15:02.926Z,27.67
2023-02-03T21:17:35.210Z,28.38
2023-02-03T21:20:01.772Z,28.60
2023-02-03T21:22:30.272Z,28.45
2023-02-03T21:24:58.363Z,29.10
2023-02-03T21:27:47.013Z,28.70
2023-02-03T21:30:33.046Z,28.75
2023-02-03T21:33:01.237Z,28.08
2023-02-03T21:35:37.608Z,27.80
2023-02-03T21:38:25.934Z,25.98
2023-02-03T21:40:52.386Z,26.38
2023-02-03T21:43:19.541Z,23.77
2023-02-03T21:45:46.167Z,24.73
2023-02-03T21:48:26.082Z,24.75
2023-02-03T21:50:54.254Z,21.17
2023-02-03T21:53:31.983Z,20.52
2023-02-03T21:56:15.686Z,19.67
2023-02-03T21:58:43.922Z,17.95
2023-02-03T22:01:16.407Z,16.52
2023-02-03T22:03:47.584Z,17.80
2023-02-03T22:06:42.793Z,17.98
2023-02-03T22:09:12.806Z,15.82
2023-02-03T22:11:39.525Z,14.40
2023-02-03T22:14:06.401Z,13.38
2023-02-03T22:16:33.174Z,11.43
2023-02-03T22:18:59.665Z,12.45
2023-02-03T22:21:26.547Z,13.27
2023-02-03T22:23:53.170Z,11.05
2023-02-03T22:26:20.436Z,11.38
2023-02-03T22:31:30.779Z,10.43
2023-02-03T22:33:57.297Z,10.63
2023-02-03T22:36:23.767Z,11.25
2023-02-03T22:38:50.398Z,9.88
2023-02-03T22:41:16.845Z,10.07
2023-02-03T22:43:43.297Z,11.88
2023-02-03T22:46:09.843Z,10.18
2023-02-03T22:48:36.565Z,10.07
2023-02-03T22:51:03.344Z,10.45
2023-02-03T22:53:30.126Z,9.88
2023-02-03T22:55:56.646Z,10.43
2023-02-03T22:58:23.082Z,9.32
2023-02-03T23:00:49.581Z,9.38
2023-02-03T23:03:16.290Z,9.50
2023-02-03T23:05:43.009Z,9.23
2023-02-03T23:08:09.890Z,8.77
2023-02-03T23:10:36.506Z,8.75
2023-02-03T23:13:03.016Z,8.82
2023-02-03T23:15:29.683Z,9.18
2023-02-03T23:17:56.143Z,9.38
2023-02-03T23:20:23.090Z,9.60
2023-02-03T23:22:49.591Z,8.75
2023-02-03T23:25:16.050Z,9.10
2023-02-03T23:27:42.640Z,9.10
2023-02-03T23:30:10.312Z,8.77
2023-02-03T23:32:36.849Z,8.98
2023-02-03T23:35:21.822Z,8.82
2023-02-03T23:37:48.278Z,8.95
2023-02-03T23:40:14.997Z,9.10
2023-02-03T23:42:41.925Z,8.98
2023-02-03T23:45:11.659Z,8.82
2023-02-03T23:47:40.054Z,9.18
2023-02-03T23:50:09.339Z,9.02
2023-02-03T23:52:39.045Z,8.37
2023-02-03T23:55:11.748Z,8.93
2023-02-03T23:57:38.720Z,9.05
